createdAt,value
2023-04-16T00:00:20.092Z,100602.09
2023-04-16T00:02:46.841Z,100614.41
2023-04-16T00:05:14.908Z,100604.28
2023-04-16T00:07:42.110Z,100616.34
2023-04-16T00:10:08.894Z,100606.03
2023-04-16T00:12:36.627Z,100604.84
2023-04-16T00:15:03.344Z,100612.34
2023-04-16T00:17:29.893Z,100615.63
2023-04-16T00:19:56.574Z,100621.03
2023-04-16T00:22:23.008Z,100621.00
2023-04-16T00:24:49.569Z,100617.72
2023-04-16T00:27:16.204Z,100622.72
2023-04-16T00:29:42.695Z,100614.63
2023-04-16T00:32:09.293Z,100623.19
2023-04-16T00:34:36.078Z,100622.81
2023-04-16T00:37:02.582Z,100622.25
2023-04-16T00:39:29.175Z,100628.66
2023-04-16T00:41:55.990Z,100628.28
2023-04-16T00:44:22.437Z,100623.41
2023-04-16T00:46:49.016Z,100634.97
2023-04-16T00:49:15.713Z,100633.19
2023-04-16T00:51:42.212Z,100637.78
2023-04-16T00:54:08.748Z,100632.59
2023-04-16T00:56:36.515Z,100638.66
2023-04-16T00:59:03.109Z,100629.41
2023-04-16T01:01:29.822Z,100633.13
2023-04-16T01:03:56.999Z,100629.41
2023-04-16T01:06:23.680Z,100633.50
2023-04-16T01:08:50.264Z,100629.03
2023-04-16T01:11:16.937Z,100631.09
2023-04-16T01:13:43.446Z,100633.59
2023-04-16T01:16:12.108Z,100635.44
2023-04-16T01:18:39.242Z,100638.00
2023-04-16T01:21:06.195Z,100634.09
2023-04-16T01:23:32.796Z,100634.56
2023-04-16T01:25:59.432Z,100637.50
2023-04-16T01:28:26.245Z,100641.22
2023-04-16T01:30:52.922Z,100645.19
2023-04-16T01:33:19.416Z,100653.09
2023-04-16T01:35:46.173Z,100648.50
2023-04-16T01:38:12.880Z,100644.81
2023-04-16T01:40:39.364Z,100645.47
2023-04-16T01:43:05.906Z,100646.47
2023-04-16T01:45:34.221Z,100657.47
2023-04-16T01:48:01.078Z,100660.84
2023-04-16T01:50:27.755Z,100659.19
2023-04-16T01:52:54.230Z,100661.72
2023-04-16T01:55:20.922Z,100664.13
2023-04-16T01:57:47.455Z,100664.19
2023-04-16T02:00:14.123Z,100666.00
2023-04-16T02:02:40.835Z,100661.72
2023-04-16T02:05:07.675Z,100667.03
2023-04-16T02:07:34.192Z,100666.50
2023-04-16T02:10:00.801Z,100674.50
2023-04-16T02:12:27.527Z,100666.09
2023-04-16T02:14:54.058Z,100669.06
2023-04-16T02:17:20.650Z,100684.09
2023-04-16T02:19:47.530Z,100681.03
2023-04-16T02:22:14.160Z,100684.16
2023-04-16T02:24:40.851Z,100678.88
2023-04-16T02:27:07.392Z,100681.25
2023-04-16T02:29:34.068Z,100683.34
2023-04-16T02:32:00.770Z,100686.50
2023-04-16T02:34:27.296Z,100686.56
2023-04-16T02:36:55.189Z,100695.16
2023-04-16T02:39:22.261Z,100691.25
2023-04-16T02:41:48.812Z,100695.44
2023-04-16T02:44:15.817Z,100682.00
2023-04-16T02:46:42.348Z,100695.91
2023-04-16T02:49:09.011Z,100694.25
2023-04-16T02:51:35.763Z,100692.47
2023-04-16T02:54:03.212Z,100702.09
2023-04-16T02:56:29.824Z,100705.44
2023-04-16T02:58:56.547Z,100696.78
2023-04-16T03:01:23.024Z,100698.75
2023-04-16T03:03:49.766Z,100700.28
2023-04-16T03:06:16.344Z,100708.00
2023-04-16T03:08:42.905Z,100709.25
2023-04-16T03:11:09.440Z,100712.19
2023-04-16T03:13:36.425Z,100709.69
2023-04-16T03:16:03.165Z,100708.47
2023-04-16T03:18:29.802Z,100711.09
2023-04-16T03:20:56.403Z,100719.00
2023-04-16T03:23:22.946Z,100723.81
2023-04-16T03:25:49.512Z,100721.56
2023-04-16T03:28:16.336Z,100719.06
2023-04-16T03:30:42.967Z,100726.78
2023-04-16T03:33:09.515Z,100730.50
2023-04-16T03:35:36.072Z,100733.41
2023-04-16T03:38:02.648Z,100741.50
2023-04-16T03:40:29.196Z,100734.69
2023-04-16T03:42:55.860Z,100732.22
2023-04-16T03:45:22.385Z,100731.56
2023-04-16T03:47:52.767Z,100731.78
2023-04-16T03:50:19.907Z,100733.84
2023-04-16T03:52:47.218Z,100737.00
2023-04-16T03:55:14.129Z,100739.09
2023-04-16T03:57:41.588Z,100743.84
2023-04-16T04:00:08.925Z,100740.53
2023-04-16T04:02:35.595Z,100742.66
2023-04-16T04:05:02.491Z,100739.34
2023-04-16T04:07:29.430Z,100748.47
2023-04-16T04:09:55.924Z,100742.47
2023-04-16T04:12:22.451Z,100750.09
2023-04-16T04:14:48.990Z,100752.19
2023-04-16T04:17:15.669Z,100752.59
2023-04-16T04:19:47.141Z,100754.50
2023-04-16T04:22:13.919Z,100755.09
2023-04-16T04:24:40.500Z,100761.75
2023-04-16T04:27:07.039Z,100763.81
2023-04-16T04:29:33.594Z,100760.94
2023-04-16T04:32:00.250Z,100758.47
2023-04-16T04:34:26.835Z,100764.06
2023-04-16T04:36:53.391Z,100766.53
2023-04-16T04:39:21.767Z,100768.63
2023-04-16T04:41:48.461Z,100764.69
2023-04-16T04:44:14.998Z,100770.31
2023-04-16T04:46:41.706Z,100770.06
2023-04-16T04:49:08.431Z,100769.72
2023-04-16T04:51:35.324Z,100769.25
2023-04-16T04:54:01.929Z,100769.06
2023-04-16T04:56:28.470Z,100773.88
2023-04-16T04:58:55.037Z,100771.59
2023-04-16T05:01:21.647Z,100776.38
2023-04-16T05:03:48.374Z,100787.94
2023-04-16T05:06:14.972Z,100791.91
2023-04-16T05:08:41.552Z,100795.78
2023-04-16T05:11:08.104Z,100792.50
2023-04-16T05:13:34.628Z,100797.03
2023-04-16T05:16:01.221Z,100798.91
2023-04-16T05:18:27.913Z,100797.25
2023-04-16T05:20:54.378Z,100807.25
2023-04-16T05:23:20.926Z,100809.22
2023-04-16T05:25:47.443Z,100813.16
2023-04-16T05:28:13.977Z,100815.03
2023-04-16T05:30:40.838Z,100813.38
2023-04-16T05:33:07.445Z,100812.78
2023-04-16T05:35:35.191Z,100807.41
2023-04-16T05:38:01.731Z,100825.59
2023-04-16T05:40:28.291Z,100821.88
2023-04-16T05:42:54.838Z,100834.50
2023-04-16T05:45:21.563Z,100836.34
2023-04-16T05:47:48.070Z,100830.44
2023-04-16T05:50:14.924Z,100840.69
2023-04-16T05:52:41.472Z,100844.94
2023-04-16T05:55:08.323Z,100845.44
2023-04-16T05:57:34.882Z,100846.91
2023-04-16T06:00:01.457Z,100849.00
2023-04-16T06:02:28.236Z,100847.34
2023-04-16T06:04:54.850Z,100852.09
2023-04-16T06:07:21.686Z,100850.47
2023-04-16T06:09:48.158Z,100855.31
2023-04-16T06:12:14.774Z,100858.31
2023-04-16T06:14:41.307Z,100854.78
2023-04-16T06:17:07.862Z,100861.22
2023-04-16T06:19:34.408Z,100851.72
2023-04-16T06:22:01.100Z,100861.44
2023-04-16T06:24:27.580Z,100861.94
2023-04-16T06:26:54.779Z,100854.78
2023-04-16T06:29:22.529Z,100857.91
2023-04-16T06:31:52.462Z,100861.63
2023-04-16T06:34:19.023Z,100873.53
2023-04-16T06:36:45.829Z,100864.50
2023-04-16T06:39:12.389Z,100867.63
2023-04-16T06:41:38.971Z,100873.59
2023-04-16T06:44:05.882Z,100873.00
2023-04-16T06:46:32.594Z,100874.88
2023-04-16T06:48:59.100Z,100885.94
2023-04-16T06:51:26.837Z,100879.81
2023-04-16T06:53:53.391Z,100887.25
2023-04-16T06:56:19.967Z,100889.72
2023-04-16T06:58:46.640Z,100886.44
2023-04-16T07:01:13.506Z,100887.25
2023-04-16T07:03:40.342Z,100886.44
2023-04-16T07:06:07.118Z,100886.44
2023-04-16T07:08:33.616Z,100895.66
2023-04-16T07:11:00.444Z,100889.53
2023-04-16T07:13:27.843Z,100891.38
2023-04-16T07:15:54.591Z,100893.47
2023-04-16T07:18:21.726Z,100900.00
2023-04-16T07:20:48.472Z,100893.47
2023-04-16T07:23:14.977Z,100901.22
2023-04-16T07:25:42.507Z,100904.00
2023-04-16T07:28:09.081Z,100899.88
2023-04-16T07:30:36.605Z,100902.34
2023-04-16T07:33:06.068Z,100897.59
2023-04-16T07:35:32.766Z,100905.03
2023-04-16T07:37:59.273Z,100908.25
2023-04-16T07:40:26.420Z,100915.34
2023-04-16T07:42:53.161Z,100919.09
2023-04-16T07:45:19.658Z,100917.78
2023-04-16T07:47:46.365Z,100921.97
2023-04-16T07:50:13.344Z,100926.38
2023-04-16T07:52:41.581Z,100928.28
2023-04-16T07:55:09.219Z,100928.47
2023-04-16T07:57:35.901Z,100936.28
2023-04-16T08:00:05.088Z,100937.09
2023-04-16T08:02:32.225Z,100937.78
2023-04-16T08:04:59.658Z,100937.91
2023-04-16T08:07:26.270Z,100937.19
2023-04-16T08:09:53.265Z,100940.88
2023-04-16T08:12:21.043Z,100947.66
2023-04-16T08:14:48.245Z,100949.84
2023-04-16T08:17:15.500Z,100951.44
2023-04-16T08:19:43.231Z,100952.59
2023-04-16T08:22:09.833Z,100960.84
2023-04-16T08:24:36.284Z,100965.13
2023-04-16T08:27:15.413Z,100966.16
2023-04-16T08:29:45.630Z,100962.78
2023-04-16T08:32:12.769Z,100966.91
2023-04-16T08:34:39.448Z,100975.16
2023-04-16T08:37:06.015Z,100982.34
2023-04-16T08:39:32.683Z,100989.22
2023-04-16T08:41:59.286Z,100978.97
2023-04-16T08:44:28.002Z,100984.63
2023-04-16T08:46:59.284Z,100989.88
2023-04-16T08:49:26.896Z,100983.88
2023-04-16T08:51:56.065Z,100984.91
2023-04-16T08:54:38.993Z,100988.38
2023-04-16T08:57:07.254Z,100982.22
2023-04-16T08:59:34.520Z,100989.28
2023-04-16T09:02:02.225Z,100988.81
2023-04-16T09:04:29.643Z,100989.63
2023-04-16T09:06:59.634Z,100991.91
2023-04-16T09:09:29.581Z,100993.47
2023-04-16T09:11:56.389Z,101000.75
2023-04-16T09:14:22.931Z,100998.44
2023-04-16T09:16:53.385Z,100993.63
2023-04-16T09:19:20.031Z,101001.31
2023-04-16T09:21:47.235Z,100999.88
2023-04-16T09:24:14.008Z,101007.59
2023-04-16T09:26:43.581Z,101005.94
2023-04-16T09:29:10.652Z,100998.09
2023-04-16T09:31:37.750Z,101002.66
2023-04-16T09:34:09.263Z,101003.03
2023-04-16T09:36:36.946Z,101010.16
2023-04-16T09:39:04.048Z,101015.31
2023-04-16T09:41:32.537Z,101019.22
2023-04-16T09:44:00.044Z,101019.59
2023-04-16T09:46:36.392Z,101017.44
2023-04-16T09:49:12.946Z,101020.75
2023-04-16T09:51:43.695Z,101014.06
2023-04-16T09:54:10.612Z,101026.94
2023-04-16T09:56:46.024Z,101023.53
2023-04-16T09:59:19.684Z,101025.53
2023-04-16T10:02:14.392Z,101026.81
2023-04-16T10:04:51.913Z,101027.72
2023-04-16T10:07:19.426Z,101027.97
2023-04-16T10:09:48.636Z,101037.50
2023-04-16T10:12:16.194Z,101031.63
2023-04-16T10:14:43.198Z,101035.75
2023-04-16T10:17:10.208Z,101042.59
2023-04-16T10:19:37.436Z,101044.25
2023-04-16T10:22:04.413Z,101049.41
2023-04-16T10:24:32.545Z,101048.13
2023-04-16T10:27:00.165Z,101044.38
2023-04-16T10:29:31.675Z,101053.66
2023-04-16T10:31:58.989Z,101053.97
2023-04-16T10:34:26.690Z,101057.59
2023-04-16T10:36:54.586Z,101060.94
2023-04-16T10:39:23.578Z,101061.03
2023-04-16T10:41:51.112Z,101067.53
2023-04-16T10:44:19.445Z,101070.28
2023-04-16T10:46:52.028Z,101062.66
2023-04-16T10:49:23.291Z,101072.31
2023-04-16T10:52:00.718Z,101074.78
2023-04-16T10:54:29.035Z,101069.50
2023-04-16T10:57:07.321Z,101080.94
2023-04-16T10:59:36.595Z,101082.06
2023-04-16T11:02:14.114Z,101076.47
2023-04-16T11:04:44.445Z,101085.06
2023-04-16T11:07:14.151Z,101080.94
2023-04-16T11:10:00.706Z,101085.41
2023-04-16T11:12:34.243Z,101089.66
2023-04-16T11:15:06.491Z,101091.16
2023-04-16T11:17:38.125Z,101084.53
2023-04-16T11:20:18.105Z,101090.97
2023-04-16T11:22:47.772Z,101095.59
2023-04-16T11:25:20.641Z,101093.50
2023-04-16T11:27:47.210Z,101098.09
2023-04-16T11:30:14.155Z,101098.31
2023-04-16T11:32:40.982Z,101100.59
2023-04-16T11:35:16.395Z,101098.91
2023-04-16T11:37:43.233Z,101106.44
2023-04-16T11:40:10.614Z,101107.69
2023-04-16T11:42:40.650Z,101103.56
2023-04-16T11:45:09.712Z,101111.03
2023-04-16T11:47:50.406Z,101104.78
2023-04-16T11:50:22.448Z,101101.91
2023-04-16T11:52:50.711Z,101105.44
2023-04-16T11:55:17.749Z,101111.91
2023-04-16T11:57:45.553Z,101108.59
2023-04-16T12:00:14.235Z,101103.19
2023-04-16T12:02:59.923Z,101109.63
2023-04-16T12:05:28.779Z,101109.63
2023-04-16T12:07:55.533Z,101113.38
2023-04-16T12:10:22.473Z,101114.41
2023-04-16T12:12:49.070Z,101101.16
2023-04-16T12:15:15.894Z,101108.19
2023-04-16T12:17:42.567Z,101114.81
2023-04-16T12:20:13.119Z,101108.47
2023-04-16T12:22:43.937Z,101113.38
2023-04-16T12:25:17.251Z,101112.31
2023-04-16T12:27:53.968Z,101114.19
2023-04-16T12:30:23.311Z,101115.66
2023-04-16T12:32:52.542Z,101112.34
2023-04-16T12:35:32.912Z,101113.97
2023-04-16T12:38:01.060Z,101112.78
2023-04-16T12:40:27.936Z,101127.28
2023-04-16T12:42:55.037Z,101112.38
2023-04-16T12:45:22.278Z,101120.25
2023-04-16T12:47:50.572Z,101113.22
2023-04-16T12:50:17.584Z,101122.13
2023-04-16T12:52:44.283Z,101115.69
2023-04-16T12:55:11.797Z,101119.00
2023-04-16T12:57:38.387Z,101115.69
2023-04-16T13:00:06.857Z,101111.97
2023-04-16T13:02:34.271Z,101126.25
2023-04-16T13:05:01.746Z,101117.38
2023-04-16T13:07:29.199Z,101116.53
2023-04-16T13:09:55.850Z,101122.75
2023-04-16T13:12:22.504Z,101127.97
2023-04-16T13:14:49.135Z,101125.59
2023-04-16T13:17:15.693Z,101124.00
2023-04-16T13:19:42.252Z,101128.94
2023-04-16T13:22:09.404Z,101128.31
2023-04-16T13:24:36.093Z,101124.16
2023-04-16T13:27:02.695Z,101128.78
2023-04-16T13:29:30.164Z,101127.25
2023-04-16T13:31:57.617Z,101133.09
2023-04-16T13:34:24.351Z,101127.72
2023-04-16T13:36:51.058Z,101131.44
2023-04-16T13:39:17.770Z,101132.50
2023-04-16T13:41:44.431Z,101121.88
2023-04-16T13:44:11.283Z,101133.75
2023-04-16T13:46:38.066Z,101128.50
2023-04-16T13:49:04.747Z,101126.00
2023-04-16T13:51:32.282Z,101129.81
2023-04-16T13:53:59.030Z,101127.63
2023-04-16T13:56:25.750Z,101134.56
2023-04-16T13:58:52.524Z,101128.03
2023-04-16T14:01:19.676Z,101134.69
2023-04-16T14:03:46.500Z,101127.19
2023-04-16T14:06:13.942Z,101130.50
2023-04-16T14:08:40.722Z,101131.09
2023-04-16T14:11:07.796Z,101125.91
2023-04-16T14:13:34.557Z,101127.34
2023-04-16T14:16:01.340Z,101124.44
2023-04-16T14:18:27.978Z,101127.50
2023-04-16T14:20:54.618Z,101135.81
2023-04-16T14:23:21.444Z,101139.06
2023-04-16T14:25:48.675Z,101128.28
2023-04-16T14:28:16.033Z,101127.03
2023-04-16T14:30:42.685Z,101133.25
2023-04-16T14:33:09.408Z,101133.81
2023-04-16T14:35:36.228Z,101127.38
2023-04-16T14:38:02.995Z,101118.25
2023-04-16T14:40:29.642Z,101118.63
2023-04-16T14:42:56.282Z,101115.03
2023-04-16T14:45:26.504Z,101122.72
2023-04-16T14:47:54.137Z,101120.59
2023-04-16T14:50:20.883Z,101113.94
2023-04-16T14:52:47.660Z,101125.13
2023-04-16T14:55:14.409Z,101123.03
2023-04-16T14:57:41.784Z,101111.81
2023-04-16T15:00:10.652Z,101118.84
2023-04-16T15:02:37.921Z,101117.81
2023-04-16T15:05:04.986Z,101119.47
2023-04-16T15:07:31.790Z,101115.72
2023-04-16T15:09:58.433Z,101110.56
2023-04-16T15:12:25.199Z,101113.97
2023-04-16T15:14:51.780Z,101107.19
2023-04-16T15:17:18.512Z,101108.59
2023-04-16T15:19:45.161Z,101111.75
2023-04-16T15:22:11.885Z,101118.34
2023-04-16T15:24:38.717Z,101108.22
2023-04-16T15:27:08.429Z,101110.31
2023-04-16T15:29:36.411Z,101116.75
2023-04-16T15:32:03.037Z,101108.03
2023-04-16T15:34:30.547Z,101120.66
2023-04-16T15:36:57.432Z,101118.59
2023-04-16T15:39:24.046Z,101113.63
2023-04-16T15:41:59.732Z,101127.03
2023-04-16T15:44:28.360Z,101120.59
2023-04-16T15:46:55.183Z,101116.69
2023-04-16T15:49:21.909Z,101121.28
2023-04-16T15:51:48.794Z,101124.81
2023-04-16T15:54:15.643Z,101127.28
2023-04-16T15:56:42.328Z,101121.88
2023-04-16T15:59:09.706Z,101128.84
2023-04-16T16:01:36.482Z,101124.06
2023-04-16T16:04:03.431Z,101127.97
2023-04-16T16:06:30.213Z,101131.50
2023-04-16T16:08:56.902Z,101135.38
2023-04-16T16:11:23.592Z,101141.84
2023-04-16T16:13:50.254Z,101140.19
2023-04-16T16:16:16.970Z,101137.41
2023-04-16T16:18:43.598Z,101136.84
2023-04-16T16:21:10.222Z,101140.28
2023-04-16T16:23:37.189Z,101145.94
2023-04-16T16:26:06.301Z,101141.38
2023-04-16T16:28:32.961Z,101143.84
2023-04-16T16:31:01.432Z,101133.78
2023-04-16T16:33:28.921Z,101126.72
2023-04-16T16:35:55.612Z,101132.13
2023-04-16T16:38:22.145Z,101134.75
2023-04-16T16:40:48.744Z,101135.38
2023-04-16T16:43:15.432Z,101133.84
2023-04-16T16:45:42.079Z,101137.63
2023-04-16T16:48:08.855Z,101141.50
2023-04-16T16:50:35.771Z,101147.16
2023-04-16T16:53:02.959Z,101145.72
2023-04-16T16:55:29.573Z,101156.31
2023-04-16T16:57:56.387Z,101154.59
2023-04-16T17:00:23.138Z,101153.00
2023-04-16T17:02:51.464Z,101154.88
2023-04-16T17:05:18.393Z,101158.59
2023-04-16T17:07:45.007Z,101153.19
2023-04-16T17:10:13.315Z,101158.25
2023-04-16T17:12:39.984Z,101149.59
2023-04-16T17:15:06.690Z,101163.19
2023-04-16T17:17:33.465Z,101153.97
2023-04-16T17:20:01.193Z,101149.00
2023-04-16T17:22:27.846Z,101156.50
2023-04-16T17:24:54.566Z,101166.13
2023-04-16T17:27:21.226Z,101166.03
2023-04-16T17:29:47.817Z,101166.13
2023-04-16T17:32:14.698Z,101172.28
2023-04-16T17:34:41.365Z,101170.25
2023-04-16T17:37:07.998Z,101170.34
2023-04-16T17:39:34.596Z,101183.50
2023-04-16T17:42:03.211Z,101173.03
2023-04-16T17:44:29.868Z,101177.72
2023-04-16T17:46:57.235Z,101176.19
2023-04-16T17:49:23.966Z,101183.31
2023-04-16T17:51:50.545Z,101183.63
2023-04-16T17:54:17.028Z,101180.84
2023-04-16T17:56:43.735Z,101181.13
2023-04-16T17:59:10.241Z,101179.63
2023-04-16T18:01:36.988Z,101189.91
2023-04-16T18:04:03.798Z,101189.13
2023-04-16T18:06:31.159Z,101197.91
2023-04-16T18:08:57.875Z,101196.47
2023-04-16T18:11:30.683Z,101198.13
2023-04-16T18:13:57.879Z,101204.41
2023-04-16T18:16:24.419Z,101209.75
2023-04-16T18:18:51.114Z,101208.16
2023-04-16T18:21:17.675Z,101215.16
2023-04-16T18:23:44.304Z,101209.19
2023-04-16T18:26:11.272Z,101215.59
2023-04-16T18:28:38.796Z,101224.53
2023-04-16T18:31:06.873Z,101224.16
2023-04-16T18:33:54.126Z,101226.69
2023-04-16T18:36:21.292Z,101223.84
2023-04-16T18:39:00.065Z,101232.16
2023-04-16T18:41:28.729Z,101224.28
2023-04-16T18:43:55.487Z,101236.31
2023-04-16T18:46:22.182Z,101241.94
2023-04-16T18:48:48.671Z,101239.84
2023-04-16T18:51:16.594Z,101246.91
2023-04-16T18:53:45.775Z,101252.97
2023-04-16T18:56:12.868Z,101248.81
2023-04-16T18:58:39.576Z,101249.28
2023-04-16T19:01:11.457Z,101260.66
2023-04-16T19:03:38.468Z,101259.63
2023-04-16T19:06:06.146Z,101262.13
2023-04-16T19:08:32.854Z,101260.47
2023-04-16T19:10:59.512Z,101267.75
2023-04-16T19:13:26.191Z,101260.47
2023-04-16T19:15:57.336Z,101265.28
2023-04-16T19:18:24.054Z,101267.97
2023-04-16T19:20:50.851Z,101266.78
2023-04-16T19:23:17.506Z,101259.69
2023-04-16T19:25:44.055Z,101269.06
2023-04-16T19:28:10.623Z,101265.53
2023-04-16T19:30:37.222Z,101275.09
2023-04-16T19:33:03.828Z,101275.50
2023-04-16T19:35:30.372Z,101271.19
2023-04-16T19:37:56.916Z,101279.28
